Time;durP1;ratioP1;P1;durP2;ratioP2;P2;SDS_P1;SDS_P2;PMS_P1;PMS_P2;Temp;Humidity;BMP_temperature;BMP_pressure;BME280_temperature;BME280_humidity;BME280_pressure;Samples;Min_cycle;Max_cycle;Signal;HPM_P1;HPM_P2
2024/01/16 00:04:15;;;;;;;8.03;4.00;;;5.30;99.90;;;;;;10541750;27;20277;-88
2024/01/16 00:09:18;;;;;;;5.27;2.83;;;6.10;99.90;;;;;;10556147;27;20680;-88
2024/01/16 00:14:20;;;;;;;8.20;4.87;;;5.90;99.90;;;;;;10550997;27;20228;-87
2024/01/16 00:19:23;;;;;;;6.07;3.53;;;6.00;99.90;;;;;;10549787;27;20313;-87
2024/01/16 00:24:25;;;;;;;7.20;4.23;;;5.50;99.90;;;;;;10578903;28;20214;-87
2024/01/16 00:29:30;;;;;;;4.80;3.83;;;5.60;99.90;;;;;;10597492;27;20638;-89
2024/01/16 00:34:33;;;;;;;7.37;4.23;;;5.10;99.90;;;;;;10591751;27;20288;-87
2024/01/16 00:39:36;;;;;;;15.03;6.47;;;3.90;99.90;;;;;;10601868;27;20225;-87
2024/01/16 00:44:38;;;;;;;4.37;2.63;;;3.20;99.90;;;;;;10623402;27;20198;-87
2024/01/16 00:49:41;;;;;;;21.53;9.60;;;2.40;99.90;;;;;;10599203;27;20285;-87
2024/01/16 00:54:43;;;;;;;4.23;2.87;;;1.70;99.90;;;;;;10578860;27;20284;-87
2024/01/16 00:59:46;;;;;;;6.90;2.77;;;1.00;99.90;;;;;;10578334;28;20245;-87
2024/01/16 01:04:49;;;;;;;4.33;3.00;;;-0.30;99.90;;;;;;10578015;28;20672;-87
2024/01/16 01:09:51;;;;;;;4.03;2.90;;;0.00;99.90;;;;;;10577799;28;20671;-87
2024/01/16 01:14:54;;;;;;;6.53;4.13;;;0.10;99.90;;;;;;10577422;27;20257;-87
2024/01/16 01:19:57;;;;;;;6.73;4.07;;;0.50;99.90;;;;;;10577710;28;20267;-87
2024/01/16 01:24:59;;;;;;;7.43;4.90;;;0.80;99.90;;;;;;10578306;28;20251;-87
2024/01/16 01:30:03;;;;;;;6.77;3.87;;;1.30;99.90;;;;;;10578449;28;20200;-87
2024/01/16 01:35:06;;;;;;;7.10;4.47;;;1.60;99.90;;;;;;10619632;27;20283;-87
2024/01/16 01:40:12;;;;;;;20.17;13.40;;;1.90;99.90;;;;;;10620417;27;20265;-87
2024/01/16 01:45:15;;;;;;;8.73;5.57;;;2.00;99.90;;;;;;10619562;27;20274;-87
2024/01/16 01:50:18;;;;;;;6.20;4.30;;;1.80;99.90;;;;;;10612355;27;20235;-87
2024/01/16 01:55:20;;;;;;;6.63;4.00;;;2.00;99.90;;;;;;10574863;28;20778;-87
2024/01/16 02:00:23;;;;;;;7.47;4.33;;;2.00;99.90;;;;;;10575365;28;20253;-87
2024/01/16 02:05:27;;;;;;;7.73;4.77;;;2.70;99.90;;;;;;10575882;28;20230;-87
2024/01/16 02:10:29;;;;;;;7.13;4.17;;;3.10;99.90;;;;;;10575826;27;20232;-87
2024/01/16 02:15:32;;;;;;;6.60;3.57;;;3.00;99.90;;;;;;10591181;27;20641;-87
2024/01/16 02:20:34;;;;;;;6.53;3.67;;;3.50;99.90;;;;;;10602788;27;20262;-87
2024/01/16 02:25:37;;;;;;;4.20;3.50;;;3.10;99.90;;;;;;10575315;28;20231;-87
2024/01/16 02:30:42;;;;;;;5.33;3.27;;;2.40;99.90;;;;;;10575750;27;20790;-87
2024/01/16 02:35:44;;;;;;;4.97;3.40;;;2.30;99.90;;;;;;10573507;28;20238;-87
2024/01/16 02:40:47;;;;;;;3.47;2.70;;;2.20;99.90;;;;;;10574785;28;20310;-87
2024/01/16 02:45:49;;;;;;;6.03;3.30;;;2.00;99.90;;;;;;10574984;28;20616;-87
2024/01/16 02:50:52;;;;;;;7.03;3.93;;;1.90;99.90;;;;;;10601574;28;20594;-87
2024/01/16 02:55:55;;;;;;;4.20;2.50;;;2.20;99.90;;;;;;10575169;28;20253;-87
2024/01/16 03:00:57;;;;;;;4.83;3.40;;;2.10;99.90;;;;;;10574886;28;20297;-87
2024/01/16 03:06:00;;;;;;;6.93;3.23;;;2.50;99.90;;;;;;10574294;28;20634;-87
2024/01/16 03:11:03;;;;;;;10.43;3.57;;;2.20;99.90;;;;;;10572978;28;20617;-87
2024/01/16 03:16:10;;;;;;;7.93;3.60;;;2.40;99.90;;;;;;10574111;28;20230;-87
2024/01/16 03:21:13;;;;;;;8.10;5.63;;;1.80;99.90;;;;;;10573543;28;20252;-87
2024/01/16 03:26:16;;;;;;;15.60;7.80;;;1.50;99.90;;;;;;10574308;28;20588;-87
2024/01/16 03:31:21;;;;;;;13.27;7.37;;;1.50;99.90;;;;;;10573866;28;20266;-86
2024/01/16 03:36:24;;;;;;;5.40;3.73;;;0.70;99.90;;;;;;10572162;28;20235;-87
2024/01/16 03:41:26;;;;;;;5.77;3.33;;;1.40;99.90;;;;;;10573887;28;20662;-87
2024/01/16 03:46:29;;;;;;;5.27;3.63;;;1.30;99.90;;;;;;10574229;28;20284;-85
2024/01/16 03:51:32;;;;;;;4.90;3.17;;;1.60;99.90;;;;;;10574229;28;20240;-87
2024/01/16 03:56:34;;;;;;;4.93;3.00;;;2.40;99.90;;;;;;10576437;28;20225;-86
2024/01/16 04:01:37;;;;;;;3.90;2.27;;;2.20;99.90;;;;;;10580649;28;20245;-86
2024/01/16 04:06:39;;;;;;;6.60;3.00;;;1.90;99.90;;;;;;10579848;27;20680;-87
2024/01/16 04:11:42;;;;;;;8.43;5.30;;;1.60;99.90;;;;;;10580663;28;20229;-87
2024/01/16 04:16:45;;;;;;;7.17;4.60;;;1.20;99.90;;;;;;10580149;28;20205;-87
2024/01/16 04:21:47;;;;;;;5.43;3.80;;;1.10;99.90;;;;;;10580495;27;20246;-87
2024/01/16 04:26:50;;;;;;;7.17;4.17;;;1.80;99.90;;;;;;10579108;28;20217;-87
2024/01/16 04:31:53;;;;;;;6.27;3.47;;;1.60;99.90;;;;;;10578457;28;20235;-87
2024/01/16 04:36:55;;;;;;;4.27;3.00;;;1.70;99.90;;;;;;10579239;28;20258;-87
2024/01/16 04:41:58;;;;;;;8.33;5.67;;;1.10;99.90;;;;;;10579303;28;20253;-87
2024/01/16 04:47:01;;;;;;;10.30;5.87;;;1.10;99.90;;;;;;10579443;28;20607;-87
2024/01/16 04:52:04;;;;;;;11.20;5.67;;;0.50;99.90;;;;;;10577892;28;20232;-86
2024/01/16 04:57:07;;;;;;;5.23;4.00;;;-0.20;99.90;;;;;;10578852;28;20609;-87
2024/01/16 05:02:09;;;;;;;8.47;4.00;;;-0.30;99.90;;;;;;10577686;27;20248;-87
2024/01/16 05:07:12;;;;;;;10.43;3.90;;;0.00;99.90;;;;;;10578360;28;20224;-86
2024/01/16 05:12:14;;;;;;;5.80;3.50;;;-0.90;99.90;;;;;;10578307;28;20232;-86
2024/01/16 05:17:17;;;;;;;21.20;8.70;;;-1.00;99.90;;;;;;10576518;28;20217;-86
2024/01/16 05:22:19;;;;;;;13.57;5.83;;;-0.60;99.90;;;;;;10577174;27;20252;-86
2024/01/16 05:27:21;;;;;;;8.43;4.43;;;-0.50;99.90;;;;;;10577507;28;20674;-86
2024/01/16 05:32:25;;;;;;;21.83;9.03;;;-1.00;99.90;;;;;;10589401;27;20328;-86
2024/01/16 05:37:29;;;;;;;6.77;3.97;;;-1.20;99.90;;;;;;10575697;28;20279;-86
2024/01/16 05:42:32;;;;;;;20.83;9.37;;;-1.10;99.90;;;;;;10578632;27;20248;-87
2024/01/16 05:47:34;;;;;;;7.83;4.80;;;-1.30;99.90;;;;;;10618686;27;20285;-86
2024/01/16 05:52:37;;;;;;;12.20;6.00;;;-2.00;99.90;;;;;;10617273;27;20228;-86
2024/01/16 05:57:43;;;;;;;15.47;7.47;;;-1.90;99.90;;;;;;10617512;27;20663;-86
2024/01/16 06:02:45;;;;;;;13.30;7.50;;;-2.20;99.90;;;;;;10616494;27;20799;-86
2024/01/16 06:07:48;;;;;;;15.53;9.27;;;-2.20;99.90;;;;;;10618510;27;20590;-86
2024/01/16 06:12:53;;;;;;;20.27;10.77;;;-2.30;99.90;;;;;;10618703;27;20628;-86
2024/01/16 06:17:56;;;;;;;23.07;11.47;;;-3.40;99.90;;;;;;10616696;27;20647;-86
2024/01/16 06:22:58;;;;;;;25.43;13.73;;;-3.20;99.90;;;;;;10584922;27;20237;-86
2024/01/16 06:28:01;;;;;;;31.50;17.57;;;-3.20;99.90;;;;;;10589873;27;20410;-86
2024/01/16 06:33:05;;;;;;;46.60;20.43;;;-3.80;99.90;;;;;;10590300;27;20321;-87
2024/01/16 06:38:08;;;;;;;47.37;25.23;;;-4.00;99.90;;;;;;10574189;28;20281;-86
2024/01/16 06:43:11;;;;;;;43.03;23.23;;;-4.10;99.90;;;;;;10574587;28;20665;-86
2024/01/16 06:48:14;;;;;;;36.53;19.20;;;-4.30;99.90;;;;;;10580096;28;20257;-86
2024/01/16 06:53:16;;;;;;;38.50;19.23;;;-3.50;99.90;;;;;;10617409;27;20231;-86
2024/01/16 06:58:19;;;;;;;43.17;19.73;;;-4.00;99.90;;;;;;10614139;28;20614;-86
2024/01/16 07:03:21;;;;;;;32.10;15.73;;;-4.70;99.90;;;;;;10615774;28;20301;-87
2024/01/16 07:08:24;;;;;;;27.90;15.13;;;-4.90;99.90;;;;;;10616237;27;20223;-86
2024/01/16 07:13:26;;;;;;;36.57;18.40;;;-5.10;99.90;;;;;;10602315;28;20220;-86
2024/01/16 07:18:29;;;;;;;39.93;19.37;;;-5.60;99.90;;;;;;10543410;28;20627;-86
2024/01/16 07:23:32;;;;;;;37.43;19.73;;;-5.40;99.90;;;;;;10567059;28;20224;-86
2024/01/16 07:28:34;;;;;;;37.83;20.53;;;-5.50;99.90;;;;;;10573270;28;20622;-86
2024/01/16 07:33:37;;;;;;;42.40;21.73;;;-5.80;99.90;;;;;;10577875;28;20294;-87
2024/01/16 07:38:39;;;;;;;40.90;21.00;;;-4.90;99.90;;;;;;10579921;28;20209;-87
2024/01/16 07:43:42;;;;;;;28.30;13.70;;;-5.30;99.90;;;;;;10593015;27;20713;-83
2024/01/16 07:48:46;;;;;;;42.37;20.97;;;-3.40;99.90;;;;;;10600524;27;20258;-84
2024/01/16 08:05:02;;;;;;;37.43;20.13;;;-2.90;99.90;;;;;;11532340;23;20301;-95
2024/01/16 08:24:14;;;;;;;29.43;16.90;;;-1.40;99.90;;;;;;10195075;29;20192;-95
2024/01/16 08:36:43;;;;;;;19.43;10.00;;;0.50;99.90;;;;;;10202502;29;20522;-93
2024/01/16 08:41:45;;;;;;;22.17;10.63;;;0.60;99.90;;;;;;10107225;29;20260;-79
2024/01/16 08:46:49;;;;;;;13.10;8.50;;;0.00;99.90;;;;;;10055429;29;20226;-80
2024/01/16 08:51:51;;;;;;;16.40;8.90;;;-0.30;99.90;;;;;;10084304;29;20237;-80
2024/01/16 08:56:54;;;;;;;16.03;9.37;;;0.50;99.90;;;;;;10067625;29;20233;-79
2024/01/16 09:01:56;;;;;;;20.60;10.43;;;1.10;99.90;;;;;;10084715;29;20253;-80
2024/01/16 09:06:58;;;;;;;18.73;9.33;;;1.80;99.90;;;;;;10092184;29;20273;-80
2024/01/16 09:12:03;;;;;;;21.33;10.77;;;2.50;99.90;;;;;;10092340;29;20256;-80
2024/01/16 09:17:06;;;;;;;14.70;9.70;;;3.60;99.90;;;;;;10085669;29;20241;-80
2024/01/16 09:22:08;;;;;;;16.70;8.90;;;4.20;99.90;;;;;;10054864;29;20310;-79
2024/01/16 09:27:11;;;;;;;14.20;7.83;;;4.00;99.90;;;;;;10090147;29;20778;-80
2024/01/16 09:32:13;;;;;;;6.20;4.80;;;4.00;99.90;;;;;;10058863;29;20624;-80
2024/01/16 09:37:16;;;;;;;10.30;6.40;;;3.60;99.90;;;;;;10053353;29;20265;-79
2024/01/16 09:42:19;;;;;;;8.70;5.80;;;4.10;99.90;;;;;;10053690;29;20701;-80
2024/01/16 09:47:24;;;;;;;9.70;5.47;;;5.50;99.90;;;;;;10063650;29;20241;-79
2024/01/16 09:52:26;;;;;;;12.00;6.57;;;5.00;99.90;;;;;;10078010;29;20629;-79
2024/01/16 09:57:31;;;;;;;9.97;5.93;;;4.60;99.90;;;;;;10088408;29;20324;-79
2024/01/16 10:02:34;;;;;;;7.60;3.67;;;4.50;99.90;;;;;;10053663;29;20699;-79
2024/01/16 10:07:38;;;;;;;8.23;4.10;;;5.30;99.90;;;;;;10052053;29;20239;-79
2024/01/16 10:12:41;;;;;;;8.53;5.33;;;5.60;99.90;;;;;;10051474;29;20679;-79
2024/01/16 10:17:44;;;;;;;8.87;5.10;;;5.90;99.90;;;;;;10072227;29;20284;-79
2024/01/16 10:22:54;;;;;;;5.60;3.80;;;6.20;99.90;;;;;;10125939;29;20263;-79
2024/01/16 10:28:08;;;;;;;8.93;5.80;;;6.40;99.90;;;;;;10086551;29;20242;-79
2024/01/16 10:33:14;;;;;;;12.20;4.90;;;6.70;99.90;;;;;;10056948;29;20296;-79
2024/01/16 10:38:22;;;;;;;6.37;4.57;;;8.20;99.90;;;;;;10117090;29;20339;-79
2024/01/16 10:43:25;;;;;;;7.73;5.40;;;;;;;;;;10052728;29;20328;-79
2024/01/16 10:48:27;;;;;;;7.10;3.83;;;9.20;99.90;;;;;;10079181;29;20247;-79
2024/01/16 10:53:33;;;;;;;7.43;4.03;;;7.80;99.90;;;;;;10048673;29;20256;-80
2024/01/16 10:58:38;;;;;;;8.00;4.77;;;7.50;99.90;;;;;;10050376;29;20234;-79
2024/01/16 11:03:48;;;;;;;4.87;3.37;;;6.00;99.90;;;;;;10050238;29;20787;-79
2024/01/16 11:08:52;;;;;;;7.57;4.63;;;6.10;99.90;;;;;;10058801;29;20273;-79
2024/01/16 11:13:56;;;;;;;7.60;4.57;;;6.20;99.90;;;;;;10058687;29;20247;-79
2024/01/16 11:18:59;;;;;;;5.00;3.03;;;7.00;99.90;;;;;;10133335;29;20230;-79
2024/01/16 11:24:21;;;;;;;7.40;4.13;;;7.10;99.90;;;;;;10120416;29;20280;-79
2024/01/16 11:29:27;;;;;;;10.07;4.87;;;8.30;99.90;;;;;;10077630;29;20347;-79
2024/01/16 11:34:42;;;;;;;6.27;4.33;;;8.30;99.90;;;;;;10085808;29;20325;-79
2024/01/16 11:39:45;;;;;;;5.37;3.37;;;7.50;99.90;;;;;;10067958;29;20261;-79
2024/01/16 11:44:54;;;;;;;7.67;4.07;;;8.20;99.90;;;;;;10090492;29;20301;-79
2024/01/16 11:50:11;;;;;;;5.90;3.73;;;8.20;99.90;;;;;;10064181;29;20309;-79
2024/01/16 11:55:31;;;;;;;4.33;2.57;;;8.40;99.90;;;;;;10056999;29;20302;-79
2024/01/16 12:00:37;;;;;;;5.40;3.87;;;7.40;99.90;;;;;;10056380;29;20273;-79
2024/01/16 12:05:39;;;;;;;7.23;4.23;;;6.50;99.90;;;;;;10086006;29;20286;-79
2024/01/16 12:10:51;;;;;;;5.77;3.27;;;7.90;99.90;;;;;;10056170;29;20240;-79
2024/01/16 12:16:04;;;;;;;8.03;4.27;;;8.10;99.90;;;;;;10054824;29;20229;-79
2024/01/16 12:21:11;;;;;;;8.50;2.67;;;8.00;99.90;;;;;;10127736;29;20254;-79
2024/01/16 12:26:22;;;;;;;5.50;2.80;;;6.50;99.90;;;;;;10146505;29;20309;-78
2024/01/16 12:31:25;;;;;;;5.67;3.20;;;6.60;99.90;;;;;;10096065;29;20246;-79
2024/01/16 12:36:27;;;;;;;4.90;3.13;;;6.10;99.90;;;;;;10092973;29;20274;-79
2024/01/16 12:41:48;;;;;;;3.40;2.43;;;7.20;99.90;;;;;;10091398;29;20817;-79
2024/01/16 12:46:55;;;;;;;4.50;2.80;;;5.20;99.90;;;;;;10060529;29;20244;-79
2024/01/16 12:52:18;;;;;;;4.53;2.50;;;4.30;99.90;;;;;;10062021;29;20241;-79
2024/01/16 12:57:21;;;;;;;5.23;3.13;;;5.80;99.90;;;;;;10092004;29;20301;-79
2024/01/16 13:02:25;;;;;;;5.67;3.77;;;6.00;99.90;;;;;;10118947;29;20260;-79
2024/01/16 13:07:28;;;;;;;6.10;3.60;;;4.70;99.90;;;;;;10069373;29;20243;-79
2024/01/16 13:12:33;;;;;;;8.03;4.03;;;4.40;99.90;;;;;;10052959;29;20311;-79
2024/01/16 13:17:36;;;;;;;5.30;2.70;;;4.40;99.90;;;;;;10071161;29;20687;-79
2024/01/16 13:22:38;;;;;;;7.33;3.87;;;4.90;99.90;;;;;;10113171;29;20266;-79
2024/01/16 13:27:48;;;;;;;5.87;4.77;;;5.00;99.90;;;;;;10079009;29;20297;-79
2024/01/16 13:32:51;;;;;;;6.03;4.10;;;4.70;99.90;;;;;;10089893;29;20325;-79
2024/01/16 13:37:54;;;;;;;6.53;4.40;;;5.60;99.90;;;;;;10103620;29;20265;-79
2024/01/16 13:42:56;;;;;;;5.43;3.67;;;6.40;99.90;;;;;;10090578;29;20756;-79
2024/01/16 13:48:00;;;;;;;5.97;2.90;;;7.30;99.90;;;;;;10061865;29;20713;-79
2024/01/16 13:53:03;;;;;;;7.57;4.57;;;7.10;99.90;;;;;;10061938;29;20240;-79
2024/01/16 13:58:06;;;;;;;4.27;3.87;;;6.50;99.90;;;;;;10083440;29;20236;-79
2024/01/16 14:03:09;;;;;;;8.10;5.17;;;7.00;99.90;;;;;;10063140;29;20329;-79
2024/01/16 14:08:13;;;;;;;6.27;4.77;;;5.70;99.90;;;;;;10050804;29;20292;-79
2024/01/16 14:13:15;;;;;;;6.07;3.97;;;4.80;99.90;;;;;;10108039;29;20232;-80
2024/01/16 14:18:18;;;;;;;6.47;5.13;;;4.30;99.90;;;;;;10090000;29;20294;-79
2024/01/16 14:23:22;;;;;;;13.60;7.53;;;3.40;99.90;;;;;;10064501;29;20259;-81
2024/01/16 14:28:26;;;;;;;10.47;6.77;;;4.40;99.90;;;;;;10051276;29;20240;-81
2024/01/16 14:33:30;;;;;;;21.63;10.97;;;5.70;99.90;;;;;;10051145;29;20266;-81
2024/01/16 14:38:33;;;;;;;28.10;14.03;;;4.30;99.90;;;;;;10050156;29;20273;-81
2024/01/16 14:43:36;;;;;;;23.70;11.30;;;3.30;99.90;;;;;;10049799;29;20255;-80
2024/01/16 14:48:44;;;;;;;22.87;12.03;;;3.30;99.90;;;;;;10078233;29;20296;-82
2024/01/16 14:53:46;;;;;;;26.80;12.90;;;4.50;99.90;;;;;;10089563;29;20269;-83
2024/01/16 14:58:49;;;;;;;23.50;11.67;;;3.70;99.90;;;;;;10083376;29;20307;-83
2024/01/16 15:03:52;;;;;;;21.03;10.07;;;3.00;99.90;;;;;;10089433;29;20261;-83
2024/01/16 15:08:54;;;;;;;26.07;13.20;;;2.50;99.90;;;;;;10089586;29;20679;-83
2024/01/16 15:13:57;;;;;;;26.80;14.10;;;2.10;99.90;;;;;;10083505;29;20245;-83
2024/01/16 15:19:00;;;;;;;23.07;11.70;;;1.90;99.90;;;;;;10089685;29;20629;-83
2024/01/16 15:24:03;;;;;;;22.83;15.20;;;1.80;99.90;;;;;;10088459;29;20260;-83
2024/01/16 15:29:08;;;;;;;25.30;14.83;;;1.70;99.90;;;;;;10078926;29;20656;-83
2024/01/16 15:34:11;;;;;;;19.13;12.93;;;1.70;99.90;;;;;;10050260;29;20244;-83
2024/01/16 15:39:18;;;;;;;17.27;11.53;;;1.70;99.90;;;;;;10050047;29;20281;-83
2024/01/16 15:44:21;;;;;;;27.17;14.87;;;1.30;99.90;;;;;;10062756;29;20294;-83
2024/01/16 15:49:27;;;;;;;28.13;15.57;;;1.10;99.90;;;;;;10063834;29;20234;-83
2024/01/16 15:54:32;;;;;;;25.20;13.80;;;1.10;99.90;;;;;;10085705;29;20657;-83
2024/01/16 15:59:35;;;;;;;20.10;10.93;;;0.90;99.90;;;;;;10095307;29;20228;-83
2024/01/16 16:04:38;;;;;;;19.20;12.63;;;1.00;99.90;;;;;;10093389;29;20308;-82
2024/01/16 16:09:40;;;;;;;19.63;12.87;;;0.90;99.90;;;;;;10095500;29;20304;-83
2024/01/16 16:14:43;;;;;;;19.70;11.73;;;0.50;99.90;;;;;;10088542;29;20271;-83
2024/01/16 16:19:46;;;;;;;16.73;11.27;;;0.40;99.90;;;;;;10103602;29;20240;-83
2024/01/16 16:24:49;;;;;;;28.23;15.87;;;0.30;99.90;;;;;;10092427;29;20307;-82
2024/01/16 16:29:55;;;;;;;21.77;14.63;;;0.30;99.90;;;;;;10092183;29;20674;-83
2024/01/16 16:34:58;;;;;;;21.67;13.93;;;0.40;99.90;;;;;;10091530;29;21035;-83
2024/01/16 16:40:02;;;;;;;24.40;13.50;;;0.30;99.90;;;;;;10091943;29;20336;-83
2024/01/16 16:45:06;;;;;;;21.87;13.37;;;0.40;99.90;;;;;;10093053;29;20323;-83
2024/01/16 16:50:10;;;;;;;26.67;13.83;;;0.50;99.90;;;;;;10067950;29;20240;-83
2024/01/16 16:55:12;;;;;;;18.03;11.33;;;0.60;99.90;;;;;;10091371;29;20262;-83
2024/01/16 17:00:15;;;;;;;20.03;13.10;;;0.50;99.90;;;;;;10090132;29;20304;-83
2024/01/16 17:05:18;;;;;;;26.20;15.73;;;0.60;99.90;;;;;;10120023;29;20264;-83
2024/01/16 17:10:21;;;;;;;31.73;16.90;;;0.60;99.90;;;;;;10092311;29;20629;-83
2024/01/16 17:15:24;;;;;;;32.30;16.83;;;0.70;99.90;;;;;;10084852;29;20265;-83
2024/01/16 17:20:28;;;;;;;26.73;14.27;;;0.60;99.90;;;;;;10070686;29;20232;-83
2024/01/16 17:25:31;;;;;;;27.17;14.00;;;0.90;99.90;;;;;;10091867;29;20291;-83
2024/01/16 17:30:34;;;;;;;24.63;14.73;;;0.80;99.90;;;;;;10090929;29;20253;-83
2024/01/16 17:35:37;;;;;;;24.53;13.00;;;1.10;99.90;;;;;;10090724;29;20304;-83
2024/01/16 17:40:40;;;;;;;16.60;9.70;;;1.40;99.90;;;;;;9749805;29;10000304;-83
2024/01/16 17:45:43;;;;;;;37.83;18.07;;;1.50;99.90;;;;;;10081578;29;20331;-83
2024/01/16 17:50:46;;;;;;;28.23;17.40;;;2.40;99.90;;;;;;10087867;29;20738;-83
2024/01/16 17:55:49;;;;;;;21.80;14.50;;;2.30;99.90;;;;;;10086252;29;20285;-83
2024/01/16 18:00:53;;;;;;;26.37;16.07;;;3.20;99.90;;;;;;10087227;29;21001;-84
2024/01/16 18:05:56;;;;;;;28.30;17.80;;;3.20;99.90;;;;;;10086840;29;20257;-83
2024/01/16 18:10:58;;;;;;;24.47;14.80;;;3.00;99.90;;;;;;10087884;29;20754;-83
2024/01/16 18:16:06;;;;;;;34.17;18.27;;;2.30;99.90;;;;;;10086791;29;20240;-83
2024/01/16 18:21:11;;;;;;;24.90;12.67;;;2.70;99.90;;;;;;10085031;29;20292;-83
2024/01/16 18:26:14;;;;;;;22.67;14.30;;;2.60;99.90;;;;;;10084988;29;20643;-83
2024/01/16 18:31:17;;;;;;;48.47;31.10;;;2.30;99.90;;;;;;10085573;29;20657;-82
2024/01/16 18:36:27;;;;;;;28.53;19.40;;;2.20;99.90;;;;;;10086654;29;20216;-80
2024/01/16 18:41:30;;;;;;;33.77;19.03;;;-0.30;99.90;;;;;;10094867;29;20328;-80
2024/01/16 18:46:34;;;;;;;31.57;18.93;;;-1.00;99.90;;;;;;10083234;29;20261;-80
2024/01/16 18:51:37;;;;;;;30.47;18.53;;;-1.20;99.90;;;;;;10085576;29;20285;-80
2024/01/16 18:56:39;;;;;;;39.30;21.27;;;-1.40;99.90;;;;;;10084190;29;20281;-80
2024/01/16 19:01:44;;;;;;;39.97;22.50;;;-1.50;99.90;;;;;;10085645;29;20289;-80
2024/01/16 19:06:47;;;;;;;42.17;25.47;;;-1.70;99.90;;;;;;10083450;29;20273;-80
2024/01/16 19:11:53;;;;;;;48.53;27.43;;;-1.70;99.90;;;;;;10085573;29;20662;-80
2024/01/16 19:16:55;;;;;;;41.47;24.60;;;-1.60;99.90;;;;;;10089221;29;20724;-80
2024/01/16 19:21:58;;;;;;;38.77;22.30;;;-1.70;99.90;;;;;;10105081;29;20388;-80
2024/01/16 19:27:00;;;;;;;42.33;22.03;;;-1.60;99.90;;;;;;10087423;29;20229;-80
2024/01/16 19:32:03;;;;;;;47.97;23.60;;;-1.60;99.90;;;;;;10092765;29;20251;-80
2024/01/16 19:37:06;;;;;;;49.27;24.53;;;-1.50;99.90;;;;;;10083654;29;20289;-80
2024/01/16 19:42:10;;;;;;;68.30;32.80;;;-1.50;99.90;;;;;;10083702;29;20260;-80
2024/01/16 19:47:12;;;;;;;48.80;28.77;;;-1.40;99.90;;;;;;10078967;29;20240;-80
2024/01/16 19:52:15;;;;;;;46.30;26.00;;;-1.30;99.90;;;;;;10086887;29;20248;-80
2024/01/16 19:57:17;;;;;;;52.97;28.53;;;-1.20;99.90;;;;;;10091525;29;20321;-80
2024/01/16 20:02:20;;;;;;;53.30;28.33;;;-1.30;99.90;;;;;;10091130;29;20259;-80
2024/01/16 20:07:24;;;;;;;49.10;25.93;;;-1.20;99.90;;;;;;10091217;29;20259;-80
2024/01/16 20:12:27;;;;;;;52.23;27.53;;;-1.10;99.90;;;;;;10094390;29;20274;-81
2024/01/16 20:17:43;;;;;;;48.67;27.00;;;-1.10;99.90;;;;;;10104097;29;20327;-82
2024/01/16 20:22:46;;;;;;;53.03;27.30;;;-1.10;99.90;;;;;;10111098;29;20320;-81
2024/01/16 20:27:51;;;;;;;45.00;25.17;;;-1.00;99.90;;;;;;10093142;29;20268;-81
2024/01/16 20:32:54;;;;;;;46.57;22.40;;;-0.90;99.90;;;;;;10066976;29;20245;-82
2024/01/16 20:37:58;;;;;;;49.63;23.33;;;-0.80;99.90;;;;;;10092416;29;20684;-83
2024/01/16 20:43:00;;;;;;;42.83;21.50;;;-0.80;99.90;;;;;;10092600;29;20790;-81
2024/01/16 20:48:03;;;;;;;35.33;19.43;;;-0.90;99.90;;;;;;10092331;29;20308;-83
2024/01/16 20:53:06;;;;;;;40.83;21.30;;;-0.90;99.90;;;;;;10091483;29;20240;-82
2024/01/16 20:58:08;;;;;;;37.23;19.90;;;-1.00;99.90;;;;;;10089599;29;20244;-81
2024/01/16 21:03:12;;;;;;;34.17;19.03;;;-1.10;99.90;;;;;;10092412;29;20301;-82
2024/01/16 21:08:15;;;;;;;36.83;18.87;;;-1.20;99.90;;;;;;10092210;29;20240;-82
2024/01/16 21:13:18;;;;;;;32.87;17.67;;;-1.10;99.90;;;;;;10090811;29;20308;-82
2024/01/16 21:18:20;;;;;;;33.53;17.87;;;-1.10;99.90;;;;;;10079488;29;20300;-80
2024/01/16 21:23:23;;;;;;;28.10;17.67;;;-1.00;99.90;;;;;;10090065;29;20268;-82
2024/01/16 21:28:25;;;;;;;25.00;16.03;;;-0.80;99.90;;;;;;10090542;29;20232;-82
2024/01/16 21:33:28;;;;;;;34.07;16.90;;;-0.90;99.90;;;;;;10075322;29;20262;-83
2024/01/16 21:38:31;;;;;;;29.50;16.30;;;-0.90;99.90;;;;;;10089886;29;20345;-83
2024/01/16 21:43:34;;;;;;;47.30;23.77;;;-0.70;99.90;;;;;;10088501;29;20264;-83
2024/01/16 21:48:37;;;;;;;28.53;15.70;;;-0.50;99.90;;;;;;10089850;29;20316;-82
2024/01/16 21:53:39;;;;;;;25.27;13.93;;;-0.40;99.90;;;;;;10090420;29;20300;-83
2024/01/16 21:58:42;;;;;;;27.53;15.03;;;-0.50;99.90;;;;;;10089114;29;20236;-83
2024/01/16 22:03:44;;;;;;;33.27;15.00;;;-0.60;99.90;;;;;;10090525;29;20264;-82
2024/01/16 22:08:53;;;;;;;28.50;15.67;;;-0.60;99.90;;;;;;10081943;29;20691;-83
2024/01/16 22:13:56;;;;;;;25.70;14.97;;;-0.50;99.90;;;;;;10089616;29;20647;-82
2024/01/16 22:18:59;;;;;;;38.30;19.17;;;-0.60;99.90;;;;;;10089976;29;20273;-83
2024/01/16 22:24:03;;;;;;;39.00;17.40;;;-0.80;99.90;;;;;;10088801;29;20745;-83
2024/01/16 22:29:06;;;;;;;31.57;17.10;;;-0.90;99.90;;;;;;10089496;29;20692;-83
2024/01/16 22:34:09;;;;;;;49.37;24.33;;;-1.00;99.90;;;;;;10086127;29;20295;-83
2024/01/16 22:39:18;;;;;;;45.07;20.43;;;-0.90;99.90;;;;;;10087336;29;20331;-82
2024/01/16 22:44:21;;;;;;;35.93;16.53;;;-0.90;99.90;;;;;;10087734;29;20718;-82
2024/01/16 22:49:24;;;;;;;33.50;17.80;;;-1.00;99.90;;;;;;10086482;29;20647;-83
2024/01/16 22:54:27;;;;;;;36.43;19.13;;;-1.10;99.90;;;;;;10088054;29;20232;-83
2024/01/16 22:59:29;;;;;;;34.43;18.50;;;-1.10;99.90;;;;;;10080606;29;20288;-83
2024/01/16 23:04:32;;;;;;;40.40;18.67;;;-1.00;99.90;;;;;;10087370;29;20264;-83
2024/01/16 23:09:35;;;;;;;35.03;18.27;;;-0.90;99.90;;;;;;9390858;29;10000598;-82
2024/01/16 23:14:37;;;;;;;33.07;17.43;;;-0.90;99.90;;;;;;10074362;29;20481;-82
2024/01/16 23:19:40;;;;;;;31.93;17.93;;;-0.90;99.90;;;;;;10090077;29;21356;-82
2024/01/16 23:24:42;;;;;;;41.20;19.97;;;-0.90;99.90;;;;;;10078066;29;20309;-82
2024/01/16 23:29:45;;;;;;;36.47;20.03;;;-0.90;99.90;;;;;;10053246;29;20334;-82
2024/01/16 23:34:48;;;;;;;29.03;15.30;;;-0.90;99.90;;;;;;10061961;29;20287;-83
2024/01/16 23:39:54;;;;;;;30.67;16.63;;;-0.90;99.90;;;;;;10079366;29;20335;-83
2024/01/16 23:44:57;;;;;;;32.00;16.70;;;-0.80;99.90;;;;;;10090533;29;20741;-82
2024/01/16 23:50:00;;;;;;;32.60;16.17;;;-0.90;99.90;;;;;;10090670;29;20240;-82
2024/01/16 23:55:05;;;;;;;30.13;15.10;;;-0.90;99.90;;;;;;10074529;29;20293;-83
